Current Conditions
Clear
Conditions



Pressure
1011.92 (hPa) - 29.88 (inHG)
Visibility

6.2 (miles) - 10.0 (km)
   Temperature
11  °C
52°F
7  °C
Dewpoint
77  %
 Humidity
   Wind Speed
8  mph
7  kts
13  km/h
3.6  m/s
   Wind Direction
 260°
Due West
   Airport Data
EGTK
Location Oxford (Kidlington) 26 mi (41.83 km)
Metar :EGTK 262120Z 26007KT CAVOK 11/07 Q1012
Sun 26th May 22:20 pm
   Raw Metar Info
Raw METAR is the most common format in the world for the transmission of observational weather data. It is highly standardized through the International Civil Aviation Organization (ICAO), which allows it to be understood throughout most of the world.
   API Info
Data Provided by
https://www.checkwx.com/weather/EGTK
   © Info
CSS/SVG/PHP scripts were developed by weather34.com for use in the weather34 template © 2015-2019

Guide Info provided by Metar-Wikipedia